Time;durP1;ratioP1;P1;durP2;ratioP2;P2;SDS_P1;SDS_P2;PMS_P1;PMS_P2;Temp;Humidity;BMP_temperature;BMP_pressure;BME280_temperature;BME280_humidity;BME280_pressure;Samples;Min_cycle;Max_cycle;Signal;HPM_P1;HPM_P2
2023/04/12 00:00:25;;;;;;;3.83;2.77;;;10.90;90.80;;;;;;5029155;28;20214;-67
2023/04/12 00:02:53;;;;;;;3.27;2.10;;;10.90;91.30;;;;;;5026875;28;20212;-67
2023/04/12 00:05:21;;;;;;;2.20;2.00;;;10.80;91.50;;;;;;5028813;28;20494;-67
2023/04/12 00:07:48;;;;;;;3.55;2.53;;;11.10;91.70;;;;;;5027626;28;20193;-67
2023/04/12 00:10:14;;;;;;;7.18;2.70;;;11.10;91.90;;;;;;5029666;28;20199;-67
2023/04/12 00:12:40;;;;;;;5.35;3.00;;;11.20;92.30;;;;;;5028912;28;20209;-67
2023/04/12 00:15:07;;;;;;;3.20;2.90;;;11.00;92.10;;;;;;5029810;28;20261;-69
2023/04/12 00:17:32;;;;;;;2.60;2.15;;;10.90;92.30;;;;;;5027215;28;20986;-68
2023/04/12 00:19:58;;;;;;;6.20;2.23;;;11.10;92.10;;;;;;5026638;28;20221;-68
2023/04/12 00:22:25;;;;;;;3.67;1.60;;;11.00;91.50;;;;;;5028999;28;20262;-67
2023/04/12 00:24:51;;;;;;;5.90;2.22;;;11.00;91.60;;;;;;5029038;28;20261;-68
2023/04/12 00:27:16;;;;;;;4.03;2.33;;;10.90;91.60;;;;;;5027972;28;20417;-68
2023/04/12 00:29:42;;;;;;;1.90;1.77;;;11.10;92.20;;;;;;5029288;28;20198;-69
2023/04/12 00:32:08;;;;;;;3.07;2.43;;;11.10;92.60;;;;;;5027177;28;20583;-67
2023/04/12 00:34:33;;;;;;;2.23;1.90;;;10.90;93.30;;;;;;5026079;28;21028;-67
2023/04/12 00:37:00;;;;;;;3.43;2.20;;;10.90;93.90;;;;;;5023133;28;20274;-68
2023/04/12 00:39:26;;;;;;;5.20;2.30;;;10.80;94.80;;;;;;5027628;28;20304;-68
2023/04/12 00:41:52;;;;;;;3.47;2.27;;;10.90;95.80;;;;;;5026430;28;20202;-67
2023/04/12 00:44:17;;;;;;;12.93;2.47;;;10.60;97.00;;;;;;5027699;28;20192;-67
2023/04/12 00:46:45;;;;;;;3.60;2.40;;;10.40;98.00;;;;;;5024281;28;20185;-69
2023/04/12 00:49:11;;;;;;;6.93;2.35;;;10.70;99.20;;;;;;5030509;28;20737;-67
2023/04/12 00:51:38;;;;;;;4.40;2.25;;;10.70;99.80;;;;;;5026897;28;20201;-68
2023/04/12 00:54:04;;;;;;;3.08;2.15;;;10.40;99.90;;;;;;5028558;28;20546;-68
2023/04/12 00:56:31;;;;;;;3.90;1.85;;;10.30;99.90;;;;;;5026954;28;20247;-68
2023/04/12 00:58:57;;;;;;;4.45;2.45;;;10.50;99.90;;;;;;5026952;28;20185;-67
2023/04/12 01:01:22;;;;;;;4.17;2.00;;;10.40;99.90;;;;;;5026782;28;20247;-68
2023/04/12 01:03:52;;;;;;;3.13;2.80;;;10.40;99.90;;;;;;5027549;28;20588;-68
2023/04/12 01:06:31;;;;;;;2.92;2.15;;;10.20;99.90;;;;;;5024116;28;20196;-70
2023/04/12 01:09:10;;;;;;;5.78;2.80;;;10.20;99.90;;;;;;5028501;28;20217;-67
2023/04/12 01:12:06;;;;;;;4.07;2.15;;;10.10;99.90;;;;;;5025680;28;20196;-68
2023/04/12 01:14:42;;;;;;;4.60;2.38;;;10.30;99.90;;;;;;5025302;28;20571;-67
2023/04/12 01:17:13;;;;;;;2.45;2.13;;;10.00;99.90;;;;;;5024894;28;20201;-68
2023/04/12 01:19:59;;;;;;;3.15;2.17;;;9.40;99.90;;;;;;5026781;28;20243;-67
2023/04/12 01:22:57;;;;;;;2.97;2.38;;;10.30;99.90;;;;;;5027393;28;20225;-68
2023/04/12 01:25:37;;;;;;;4.25;1.70;;;9.90;99.90;;;;;;5040318;28;20201;-67
2023/04/12 01:28:04;;;;;;;5.10;2.33;;;10.00;99.90;;;;;;5024851;28;20186;-68
2023/04/12 01:30:31;;;;;;;3.35;1.90;;;10.10;99.90;;;;;;5027893;28;20689;-67
2023/04/12 01:32:59;;;;;;;2.85;2.17;;;10.10;99.90;;;;;;5024445;28;20261;-67
2023/04/12 01:35:30;;;;;;;4.68;2.20;;;10.00;99.90;;;;;;5026130;28;20280;-67
2023/04/12 01:38:00;;;;;;;4.97;2.35;;;9.90;99.90;;;;;;5025101;28;20207;-66
2023/04/12 01:40:27;;;;;;;5.80;2.70;;;10.00;99.90;;;;;;5027578;28;20259;-67
2023/04/12 01:43:07;;;;;;;5.40;1.83;;;9.90;99.90;;;;;;5027352;28;20299;-68
2023/04/12 01:45:33;;;;;;;1.98;1.60;;;9.70;99.90;;;;;;5024472;28;20650;-68
2023/04/12 01:48:00;;;;;;;2.92;1.80;;;9.70;99.90;;;;;;5024945;28;20242;-66
2023/04/12 01:50:38;;;;;;;2.75;2.22;;;9.90;99.90;;;;;;5030729;28;20290;-66
2023/04/12 01:53:10;;;;;;;5.50;2.05;;;9.90;99.90;;;;;;5024743;28;20223;-67
2023/04/12 01:55:38;;;;;;;5.40;2.33;;;9.70;99.90;;;;;;5026396;28;20192;-67
2023/04/12 01:58:04;;;;;;;2.65;1.85;;;9.90;99.90;;;;;;5022047;28;20194;-67
2023/04/12 02:00:34;;;;;;;5.20;2.70;;;9.80;99.90;;;;;;5025276;28;20259;-67
2023/04/12 02:02:59;;;;;;;2.60;2.20;;;9.60;99.90;;;;;;5024406;28;20550;-66
2023/04/12 02:05:25;;;;;;;2.27;1.83;;;9.60;99.90;;;;;;5026632;28;20279;-67
2023/04/12 02:07:51;;;;;;;5.27;3.20;;;9.60;99.90;;;;;;5030883;28;20188;-67
2023/04/12 02:10:29;;;;;;;3.50;2.07;;;9.60;99.90;;;;;;5030858;28;20434;-67
2023/04/12 02:13:01;;;;;;;3.35;2.80;;;9.50;99.90;;;;;;5030821;28;20299;-67
2023/04/12 02:15:27;;;;;;;3.72;2.10;;;9.50;99.90;;;;;;5025144;28;20558;-67
2023/04/12 02:17:53;;;;;;;3.65;2.40;;;9.50;99.90;;;;;;5031140;28;20188;-68
2023/04/12 02:20:21;;;;;;;4.00;2.20;;;9.40;99.90;;;;;;5030042;28;20216;-67
2023/04/12 02:22:46;;;;;;;2.90;2.30;;;9.40;99.90;;;;;;5031704;28;20620;-67
2023/04/12 02:25:12;;;;;;;2.43;1.93;;;9.60;99.90;;;;;;5029564;28;20184;-67
2023/04/12 02:27:38;;;;;;;2.57;2.20;;;9.40;99.90;;;;;;5029835;28;20196;-67
2023/04/12 02:30:04;;;;;;;3.67;2.00;;;9.30;99.90;;;;;;5031517;28;20636;-69
2023/04/12 02:32:31;;;;;;;3.78;2.60;;;9.50;99.90;;;;;;5031439;28;20211;-66
2023/04/12 02:34:57;;;;;;;4.07;2.45;;;9.40;99.90;;;;;;5025668;28;20181;-67
2023/04/12 02:37:26;;;;;;;3.33;2.10;;;9.20;99.90;;;;;;5027987;28;20188;-66
2023/04/12 02:39:55;;;;;;;4.63;2.50;;;9.30;99.90;;;;;;5030092;28;20632;-67
2023/04/12 02:42:21;;;;;;;3.00;2.20;;;9.10;99.90;;;;;;5029455;28;20694;-68
2023/04/12 02:44:47;;;;;;;3.88;2.42;;;9.20;99.90;;;;;;5032417;28;20561;-67
2023/04/12 02:47:13;;;;;;;3.73;2.67;;;9.30;99.90;;;;;;5030608;28;20185;-68
2023/04/12 02:49:39;;;;;;;3.90;2.83;;;9.20;99.90;;;;;;5032554;28;20189;-67
2023/04/12 02:52:04;;;;;;;3.93;2.60;;;9.10;99.90;;;;;;5027348;28;20220;-66
2023/04/12 02:54:30;;;;;;;5.00;2.63;;;9.40;99.90;;;;;;5031052;28;20357;-67
2023/04/12 02:56:56;;;;;;;5.87;2.50;;;9.20;99.90;;;;;;5028320;28;20201;-66
2023/04/12 02:59:21;;;;;;;3.70;2.60;;;9.30;99.90;;;;;;5029350;28;20225;-67
2023/04/12 03:01:49;;;;;;;6.20;3.13;;;9.20;99.90;;;;;;5029882;28;20206;-65
2023/04/12 03:04:15;;;;;;;3.70;3.13;;;9.40;99.90;;;;;;5029735;28;20728;-66
2023/04/12 03:06:51;;;;;;;3.93;2.83;;;9.20;99.90;;;;;;5027967;28;20599;-67
2023/04/12 03:09:17;;;;;;;5.75;3.00;;;9.10;99.90;;;;;;5030688;28;20334;-67
2023/04/12 03:11:42;;;;;;;4.80;2.88;;;9.20;99.90;;;;;;5029438;28;20204;-67
2023/04/12 03:14:08;;;;;;;4.37;2.43;;;9.20;99.90;;;;;;5027352;28;20182;-67
2023/04/12 03:16:34;;;;;;;3.03;2.60;;;9.40;99.90;;;;;;5029703;28;21572;-66
2023/04/12 03:19:00;;;;;;;3.73;2.73;;;9.20;99.90;;;;;;5027785;28;20764;-66
2023/04/12 03:21:27;;;;;;;2.90;2.60;;;9.40;99.90;;;;;;5027740;28;20523;-66
2023/04/12 03:23:52;;;;;;;2.97;2.67;;;9.00;99.90;;;;;;5026877;28;20709;-66
2023/04/12 03:26:19;;;;;;;4.30;2.30;;;9.20;99.90;;;;;;5028075;28;20230;-67
2023/04/12 03:28:46;;;;;;;3.33;2.33;;;8.80;99.90;;;;;;5026906;28;20289;-68
2023/04/12 03:31:11;;;;;;;4.32;2.75;;;9.50;99.90;;;;;;5029908;28;20244;-66
2023/04/12 03:33:37;;;;;;;2.53;2.33;;;9.30;99.90;;;;;;5029822;28;20732;-66
2023/04/12 03:36:04;;;;;;;4.90;2.63;;;9.30;99.90;;;;;;5029597;28;20469;-67
2023/04/12 03:38:30;;;;;;;4.85;3.30;;;9.30;99.90;;;;;;5027228;28;20447;-67
2023/04/12 03:40:56;;;;;;;3.10;2.70;;;9.40;99.90;;;;;;5029040;28;20224;-66
2023/04/12 03:43:21;;;;;;;5.83;2.40;;;9.20;99.90;;;;;;5028718;28;20211;-68
2023/04/12 03:45:47;;;;;;;5.27;2.83;;;9.50;99.90;;;;;;5027749;28;20234;-67
2023/04/12 03:48:13;;;;;;;3.77;2.73;;;9.40;99.90;;;;;;5027001;28;20248;-67
2023/04/12 03:50:43;;;;;;;2.90;2.60;;;9.30;99.90;;;;;;5030672;28;20202;-67
2023/04/12 03:53:10;;;;;;;4.93;2.90;;;9.40;99.90;;;;;;5026610;28;20216;-68
2023/04/12 03:55:39;;;;;;;2.88;2.53;;;9.40;99.90;;;;;;5029401;28;20263;-70
2023/04/12 03:58:05;;;;;;;3.70;3.10;;;9.40;99.90;;;;;;5027362;28;20204;-67
2023/04/12 04:00:30;;;;;;;4.10;3.10;;;8.80;99.90;;;;;;5024461;28;20677;-67
2023/04/12 04:03:02;;;;;;;4.47;2.80;;;9.40;99.90;;;;;;5026158;28;20220;-67
2023/04/12 04:05:30;;;;;;;4.70;3.10;;;9.50;99.90;;;;;;5029480;28;20185;-69
2023/04/12 04:08:01;;;;;;;3.70;3.20;;;9.30;99.90;;;;;;5028798;28;20591;-68
2023/04/12 04:10:30;;;;;;;4.05;3.00;;;9.50;99.90;;;;;;5031891;28;20535;-67
2023/04/12 04:12:55;;;;;;;3.80;3.10;;;9.30;99.90;;;;;;5028046;28;21057;-67
2023/04/12 04:15:21;;;;;;;3.50;3.00;;;9.30;99.90;;;;;;5029151;28;20284;-68
2023/04/12 04:17:48;;;;;;;3.93;3.37;;;9.20;99.90;;;;;;5029149;28;20647;-68
2023/04/12 04:20:14;;;;;;;4.57;3.35;;;9.50;99.90;;;;;;5026478;28;20959;-67
2023/04/12 04:22:41;;;;;;;3.60;3.30;;;9.40;99.90;;;;;;5029517;28;20196;-68
2023/04/12 04:25:07;;;;;;;3.90;3.35;;;9.30;99.90;;;;;;5028940;28;20479;-69
2023/04/12 04:27:37;;;;;;;4.75;3.03;;;9.20;99.90;;;;;;5028130;28;20669;-68
2023/04/12 04:30:04;;;;;;;4.85;3.78;;;9.30;99.90;;;;;;5023348;28;20672;-68
2023/04/12 04:32:31;;;;;;;3.92;3.63;;;9.10;99.90;;;;;;5029820;28;20374;-67
2023/04/12 04:34:58;;;;;;;5.70;3.75;;;9.30;99.90;;;;;;5030501;28;20202;-67
2023/04/12 04:37:29;;;;;;;4.13;3.72;;;9.20;99.90;;;;;;5027323;28;20192;-68
2023/04/12 04:39:55;;;;;;;5.30;4.30;;;9.10;99.90;;;;;;5019142;28;20258;-67
2023/04/12 04:42:20;;;;;;;4.17;3.77;;;9.10;99.90;;;;;;5028176;28;20647;-68
2023/04/12 04:44:49;;;;;;;4.47;3.93;;;9.20;99.90;;;;;;5029108;28;20427;-68
2023/04/12 04:47:15;;;;;;;4.30;3.90;;;9.10;99.90;;;;;;5029230;28;20184;-68
2023/04/12 04:49:42;;;;;;;3.60;3.30;;;9.20;99.90;;;;;;5029606;28;20227;-68
2023/04/12 04:52:08;;;;;;;4.13;3.47;;;9.40;99.90;;;;;;5027256;28;20826;-68
2023/04/12 04:54:34;;;;;;;4.13;3.72;;;9.20;99.90;;;;;;5028653;28;20214;-67
2023/04/12 04:57:00;;;;;;;3.88;3.42;;;9.30;99.90;;;;;;5025920;28;20204;-68
2023/04/12 04:59:26;;;;;;;3.97;3.67;;;9.30;99.90;;;;;;5026477;28;20301;-67
2023/04/12 05:01:52;;;;;;;3.57;3.27;;;9.30;99.90;;;;;;5024268;28;20438;-67
2023/04/12 05:04:17;;;;;;;3.77;3.27;;;9.60;99.90;;;;;;5026513;28;20658;-69
2023/04/12 05:06:44;;;;;;;3.17;2.87;;;9.40;99.90;;;;;;5025647;28;20189;-67
2023/04/12 05:09:10;;;;;;;3.83;3.33;;;9.40;99.90;;;;;;5022742;28;20254;-68
2023/04/12 05:11:36;;;;;;;3.57;3.27;;;9.30;99.90;;;;;;5024920;28;20182;-71
2023/04/12 05:14:01;;;;;;;3.47;3.17;;;8.60;99.90;;;;;;5028940;28;20254;-67
2023/04/12 05:16:27;;;;;;;3.80;3.40;;;9.30;99.90;;;;;;5026159;28;20199;-67
2023/04/12 05:18:53;;;;;;;5.93;3.57;;;9.30;99.90;;;;;;5025769;28;20280;-67
2023/04/12 05:21:18;;;;;;;6.40;4.30;;;9.20;99.90;;;;;;5025923;28;20293;-68
2023/04/12 05:23:46;;;;;;;3.93;3.63;;;9.50;99.90;;;;;;5027540;28;20654;-68
2023/04/12 05:26:12;;;;;;;4.43;3.53;;;9.20;99.90;;;;;;5026234;28;20208;-68
2023/04/12 05:28:37;;;;;;;3.47;3.17;;;9.40;99.90;;;;;;5025078;28;20329;-69
2023/04/12 05:31:04;;;;;;;3.60;3.30;;;9.30;99.90;;;;;;5024275;28;20760;-70
2023/04/12 05:33:30;;;;;;;3.50;3.20;;;9.20;99.90;;;;;;5028894;28;20348;-70
2023/04/12 05:35:56;;;;;;;3.67;3.38;;;9.40;99.90;;;;;;5026203;28;20654;-70
2023/04/12 05:38:22;;;;;;;3.80;3.50;;;9.40;99.90;;;;;;5029647;28;20250;-70
2023/04/12 05:40:51;;;;;;;4.43;3.45;;;9.50;99.90;;;;;;5025099;28;20779;-70
2023/04/12 05:43:17;;;;;;;3.83;2.90;;;9.50;99.90;;;;;;5028635;28;20208;-69
2023/04/12 05:45:42;;;;;;;3.17;2.87;;;9.30;99.90;;;;;;5030571;28;20180;-70
2023/04/12 05:48:08;;;;;;;3.40;2.70;;;9.50;99.90;;;;;;5028477;28;20534;-69
2023/04/12 05:50:34;;;;;;;3.80;3.37;;;9.40;99.90;;;;;;5030021;28;20208;-67
2023/04/12 05:53:00;;;;;;;3.35;3.05;;;9.40;99.90;;;;;;5031780;28;20878;-67
2023/04/12 05:55:27;;;;;;;3.70;3.30;;;9.60;99.90;;;;;;5027609;28;20187;-67
2023/04/12 05:57:53;;;;;;;3.13;2.83;;;9.60;99.90;;;;;;5028462;28;20391;-67
2023/04/12 06:00:25;;;;;;;4.57;3.93;;;9.40;99.90;;;;;;5032007;28;20208;-70
2023/04/12 06:02:51;;;;;;;3.50;3.20;;;9.60;99.90;;;;;;5032764;28;20437;-68
2023/04/12 06:05:16;;;;;;;2.73;2.53;;;9.80;99.90;;;;;;5030240;28;20480;-69
2023/04/12 06:07:46;;;;;;;3.10;2.80;;;9.40;99.90;;;;;;5027790;28;20444;-67
2023/04/12 06:10:16;;;;;;;3.45;3.15;;;9.80;99.90;;;;;;5029936;28;20734;-67
2023/04/12 06:12:41;;;;;;;3.55;3.00;;;9.60;99.90;;;;;;5028480;28;20286;-66
2023/04/12 06:15:08;;;;;;;6.17;3.30;;;9.60;99.90;;;;;;5029402;28;20210;-66
2023/04/12 06:17:34;;;;;;;4.13;3.10;;;9.80;99.90;;;;;;5030753;28;20656;-66
2023/04/12 06:19:59;;;;;;;3.83;2.90;;;9.70;99.90;;;;;;5029571;28;20228;-66
2023/04/12 06:22:25;;;;;;;3.00;2.80;;;9.80;99.90;;;;;;5027423;28;20216;-66
2023/04/12 06:24:51;;;;;;;3.43;3.13;;;9.60;99.90;;;;;;5030086;28;20596;-66
2023/04/12 06:27:16;;;;;;;3.07;2.83;;;9.90;99.90;;;;;;5028203;28;20251;-66
2023/04/12 06:29:42;;;;;;;3.17;2.70;;;9.90;99.90;;;;;;5029459;28;20251;-66
2023/04/12 06:32:08;;;;;;;4.00;2.33;;;9.90;99.90;;;;;;5030345;28;20208;-67
2023/04/12 06:34:34;;;;;;;3.25;2.70;;;9.70;99.90;;;;;;5032355;28;20189;-67
2023/04/12 06:36:59;;;;;;;3.57;2.90;;;9.80;99.90;;;;;;5028257;28;20193;-68
2023/04/12 06:39:25;;;;;;;3.50;2.73;;;10.10;99.90;;;;;;5029668;28;20418;-68
2023/04/12 06:41:51;;;;;;;4.83;3.80;;;9.80;99.90;;;;;;5024317;28;20212;-68
2023/04/12 06:44:16;;;;;;;3.57;2.50;;;10.00;99.90;;;;;;5030207;28;20197;-67
2023/04/12 06:46:42;;;;;;;2.40;2.20;;;10.20;99.90;;;;;;5028518;28;20213;-68
2023/04/12 06:49:07;;;;;;;3.23;3.03;;;10.20;99.90;;;;;;5029978;28;20185;-68
2023/04/12 06:51:34;;;;;;;2.43;2.23;;;10.30;99.90;;;;;;5028029;28;20204;-68
2023/04/12 06:54:00;;;;;;;2.60;2.40;;;10.00;99.90;;;;;;5027123;28;20176;-67
2023/04/12 06:56:26;;;;;;;4.72;2.47;;;10.40;99.90;;;;;;5028840;28;20200;-67
2023/04/12 06:58:51;;;;;;;2.47;2.27;;;10.00;99.90;;;;;;5024523;28;20181;-68
2023/04/12 07:01:17;;;;;;;2.57;2.37;;;10.30;99.90;;;;;;5029321;28;20212;-67
2023/04/12 07:03:43;;;;;;;2.20;2.00;;;10.30;99.90;;;;;;5030254;28;20221;-67
2023/04/12 07:06:09;;;;;;;2.30;2.00;;;10.10;99.90;;;;;;5028748;28;20268;-67
2023/04/12 07:08:35;;;;;;;2.60;2.17;;;10.70;99.90;;;;;;5028600;28;20177;-67
2023/04/12 07:11:02;;;;;;;2.92;2.67;;;10.70;99.90;;;;;;5030172;28;20825;-67
2023/04/12 07:13:28;;;;;;;2.60;2.33;;;10.60;99.90;;;;;;5027770;28;20722;-65
2023/04/12 07:15:53;;;;;;;2.20;2.00;;;10.50;99.90;;;;;;5029662;28;20207;-66
2023/04/12 07:18:20;;;;;;;2.40;2.20;;;10.60;99.90;;;;;;5029687;28;20199;-67
2023/04/12 07:20:52;;;;;;;3.40;1.90;;;10.60;99.90;;;;;;5027486;28;20224;-67
2023/04/12 07:23:17;;;;;;;2.22;2.03;;;10.70;99.90;;;;;;5029499;28;20217;-67
2023/04/12 07:25:43;;;;;;;5.37;2.70;;;10.90;99.90;;;;;;5029197;28;20182;-66
2023/04/12 07:28:09;;;;;;;2.23;2.03;;;10.90;99.90;;;;;;5028138;28;20221;-66
2023/04/12 07:30:35;;;;;;;3.00;2.70;;;11.00;99.90;;;;;;5029660;28;20451;-67
2023/04/12 07:33:04;;;;;;;4.40;2.70;;;11.00;99.90;;;;;;5028764;28;20842;-67
2023/04/12 07:35:30;;;;;;;2.50;2.30;;;10.80;99.90;;;;;;5026191;28;20193;-67
2023/04/12 07:37:56;;;;;;;3.13;2.53;;;10.90;99.90;;;;;;5029294;28;20229;-66
2023/04/12 07:40:22;;;;;;;2.37;2.27;;;10.90;99.90;;;;;;5028738;28;20248;-67
2023/04/12 07:42:48;;;;;;;3.33;3.00;;;11.00;99.90;;;;;;5027659;28;20209;-67
2023/04/12 07:45:13;;;;;;;2.40;2.20;;;11.40;99.90;;;;;;5027580;28;20189;-67
2023/04/12 07:47:39;;;;;;;1.83;1.70;;;11.20;99.90;;;;;;5027500;28;20197;-67
2023/04/12 07:50:05;;;;;;;2.13;1.73;;;11.10;99.90;;;;;;5031457;28;20193;-67
2023/04/12 07:52:31;;;;;;;3.05;2.25;;;11.00;99.90;;;;;;5024952;28;20217;-66
2023/04/12 07:54:57;;;;;;;3.60;2.57;;;11.00;99.90;;;;;;5028647;28;20186;-67
2023/04/12 07:57:23;;;;;;;1.70;1.50;;;11.00;99.90;;;;;;5026860;28;20311;-67
2023/04/12 07:59:49;;;;;;;2.20;1.57;;;11.20;99.90;;;;;;5028786;28;20506;-67
2023/04/12 08:02:23;;;;;;;3.15;1.65;;;11.10;99.90;;;;;;5027421;28;20279;-66
2023/04/12 08:04:49;;;;;;;1.80;1.70;;;11.00;99.90;;;;;;5027327;28;20183;-67
2023/04/12 08:07:15;;;;;;;1.88;1.55;;;11.10;99.90;;;;;;5024913;28;20196;-67
2023/04/12 08:09:41;;;;;;;1.70;1.60;;;11.20;99.90;;;;;;5027863;28;20261;-67
2023/04/12 08:12:07;;;;;;;1.60;1.50;;;11.30;99.90;;;;;;5026857;28;20495;-67
2023/04/12 08:14:32;;;;;;;1.20;1.10;;;11.40;99.90;;;;;;5024826;28;20186;-67
2023/04/12 08:16:58;;;;;;;3.00;1.77;;;11.30;99.90;;;;;;5018688;28;20960;-67
2023/04/12 08:19:24;;;;;;;3.10;2.33;;;11.10;99.90;;;;;;5028351;28;20197;-67
2023/04/12 08:21:49;;;;;;;2.33;2.17;;;11.50;99.90;;;;;;5026843;28;20217;-67
2023/04/12 08:24:15;;;;;;;2.20;1.60;;;11.50;99.90;;;;;;5028500;28;20190;-67
2023/04/12 08:26:40;;;;;;;2.93;2.63;;;11.90;99.90;;;;;;5027321;28;20186;-67
2023/04/12 08:29:06;;;;;;;2.50;2.00;;;11.60;99.90;;;;;;5028100;28;20489;-67
2023/04/12 08:31:32;;;;;;;3.00;1.70;;;11.60;99.90;;;;;;5029690;28;20182;-68
2023/04/12 08:33:58;;;;;;;1.55;1.45;;;11.90;99.90;;;;;;5028657;28;20232;-68
2023/04/12 08:36:26;;;;;;;1.60;1.50;;;11.80;99.90;;;;;;5026254;28;20598;-68
2023/04/12 08:38:54;;;;;;;2.00;1.80;;;11.70;99.90;;;;;;5026748;28;20415;-68
2023/04/12 08:41:20;;;;;;;2.55;1.50;;;12.00;99.90;;;;;;5027881;28;20572;-68
2023/04/12 08:43:47;;;;;;;1.63;1.50;;;12.00;99.90;;;;;;5027256;28;20190;-67
2023/04/12 08:46:14;;;;;;;1.73;1.63;;;11.80;99.90;;;;;;5021565;28;20228;-68
2023/04/12 08:48:42;;;;;;;2.80;1.55;;;11.90;99.90;;;;;;5025461;28;20621;-68
2023/04/12 08:51:10;;;;;;;1.45;1.33;;;11.80;99.90;;;;;;5028807;28;20212;-68
2023/04/12 08:53:37;;;;;;;1.83;1.40;;;12.10;99.90;;;;;;5027542;28;20202;-68
2023/04/12 08:56:05;;;;;;;2.45;1.52;;;12.20;99.90;;;;;;5027054;28;20178;-68
2023/04/12 08:58:32;;;;;;;1.80;1.70;;;12.10;99.90;;;;;;5023883;28;20274;-69
2023/04/12 09:00:59;;;;;;;2.63;1.85;;;12.50;99.90;;;;;;5027129;28;20206;-68
2023/04/12 09:03:25;;;;;;;2.05;1.50;;;12.00;99.90;;;;;;5027425;28;20212;-68
2023/04/12 09:05:51;;;;;;;2.00;1.83;;;12.00;99.90;;;;;;5021533;28;20179;-68
2023/04/12 09:08:16;;;;;;;3.30;1.93;;;12.10;99.90;;;;;;5024032;28;20186;-68
2023/04/12 09:10:42;;;;;;;2.73;1.93;;;12.30;99.90;;;;;;5027240;28;20193;-67
2023/04/12 09:13:08;;;;;;;1.70;1.60;;;12.00;99.90;;;;;;5026136;28;20272;-67
2023/04/12 09:15:34;;;;;;;1.70;1.60;;;12.10;99.90;;;;;;5027622;28;20530;-67
2023/04/12 09:18:13;;;;;;;1.70;1.60;;;12.30;99.90;;;;;;5026754;28;20437;-67
2023/04/12 09:20:39;;;;;;;3.75;1.92;;;12.30;99.90;;;;;;5024622;28;20216;-67
2023/04/12 09:23:36;;;;;;;2.63;1.90;;;12.40;99.90;;;;;;5024746;28;20209;-66
2023/04/12 09:26:03;;;;;;;3.28;1.95;;;12.60;99.90;;;;;;5027238;28;20195;-67
2023/04/12 09:28:29;;;;;;;1.92;1.75;;;12.70;99.90;;;;;;5026585;28;20621;-68
2023/04/12 09:30:59;;;;;;;1.90;1.70;;;12.60;99.90;;;;;;5027131;28;20182;-69
2023/04/12 09:33:36;;;;;;;2.22;1.70;;;13.10;99.90;;;;;;5027499;28;20229;-67
2023/04/12 09:36:03;;;;;;;2.40;1.85;;;13.40;99.90;;;;;;5024011;28;20446;-68
2023/04/12 09:38:35;;;;;;;2.13;1.92;;;13.50;99.90;;;;;;5026865;28;20320;-67
2023/04/12 09:41:18;;;;;;;2.58;2.05;;;13.80;99.90;;;;;;5027848;28;20506;-67
2023/04/12 09:43:44;;;;;;;2.25;2.00;;;13.70;99.90;;;;;;5024425;28;20209;-67
2023/04/12 09:46:13;;;;;;;2.00;1.60;;;13.50;99.90;;;;;;5026817;28;20553;-67
2023/04/12 09:48:42;;;;;;;2.55;1.65;;;13.70;99.90;;;;;;5026575;28;20198;-67
2023/04/12 09:51:08;;;;;;;2.20;2.00;;;13.70;99.90;;;;;;5027148;28;20212;-67
2023/04/12 09:53:37;;;;;;;2.27;1.80;;;13.90;99.90;;;;;;5030068;28;20297;-67
2023/04/12 09:56:03;;;;;;;2.75;2.38;;;13.60;99.90;;;;;;5024455;28;20531;-67
2023/04/12 09:58:32;;;;;;;3.80;1.63;;;13.60;99.90;;;;;;5026618;28;20186;-67
2023/04/12 10:01:01;;;;;;;2.65;1.70;;;13.70;99.90;;;;;;5027652;28;20659;-67
2023/04/12 10:03:27;;;;;;;2.42;1.98;;;13.80;99.90;;;;;;5022339;28;20416;-67
2023/04/12 10:05:54;;;;;;;2.40;1.80;;;14.20;99.90;;;;;;5024335;28;20186;-67
2023/04/12 10:08:22;;;;;;;2.33;1.55;;;14.00;99.90;;;;;;5027050;28;20796;-68
2023/04/12 10:10:47;;;;;;;1.88;1.77;;;14.20;99.90;;;;;;5026072;28;20600;-67
2023/04/12 10:13:14;;;;;;;2.60;1.60;;;14.30;99.90;;;;;;5025111;28;20234;-67
2023/04/12 10:15:41;;;;;;;1.80;1.52;;;14.60;99.90;;;;;;5026786;28;20187;-67
2023/04/12 10:18:07;;;;;;;3.15;1.85;;;14.80;99.90;;;;;;5024373;28;20692;-67
2023/04/12 10:20:33;;;;;;;2.17;1.58;;;14.70;99.90;;;;;;5025819;28;20216;-67
2023/04/12 10:22:58;;;;;;;2.20;1.60;;;14.80;99.90;;;;;;5025523;28;20289;-67
2023/04/12 10:25:26;;;;;;;2.93;2.00;;;15.30;99.90;;;;;;5027381;28;20440;-68
2023/04/12 10:27:52;;;;;;;2.90;1.90;;;14.90;99.90;;;;;;5026383;28;20284;-68
2023/04/12 10:30:25;;;;;;;2.37;1.67;;;15.00;99.90;;;;;;5027192;28;20271;-69
2023/04/12 10:33:12;;;;;;;1.83;1.50;;;15.10;99.90;;;;;;5030388;28;21382;-68
2023/04/12 10:36:09;;;;;;;3.08;1.40;;;15.50;99.90;;;;;;5027859;28;20193;-69
2023/04/12 10:39:06;;;;;;;4.47;2.10;;;15.60;99.90;;;;;;5026873;28;20663;-69
2023/04/12 10:41:31;;;;;;;2.22;1.90;;;16.00;99.90;;;;;;5026329;28;20214;-70
2023/04/12 10:44:24;;;;;;;3.10;1.90;;;16.30;99.90;;;;;;5029895;28;20182;-69
2023/04/12 10:46:50;;;;;;;2.10;1.90;;;16.00;99.90;;;;;;5029058;28;20542;-70
2023/04/12 10:49:17;;;;;;;2.03;1.80;;;16.30;99.90;;;;;;5030108;28;20264;-69
2023/04/12 10:52:08;;;;;;;3.08;1.70;;;16.30;99.90;;;;;;5026627;28;20227;-69
2023/04/12 10:54:34;;;;;;;2.30;1.85;;;16.30;99.90;;;;;;5029781;28;20542;-70
2023/04/12 10:57:01;;;;;;;3.63;1.70;;;16.20;99.90;;;;;;5025345;28;20186;-69
2023/04/12 10:59:51;;;;;;;2.40;1.70;;;16.00;99.70;;;;;;5029809;28;20190;-69
2023/04/12 11:02:17;;;;;;;1.27;1.17;;;16.00;99.90;;;;;;5027539;28;20679;-69
2023/04/12 11:05:07;;;;;;;2.60;2.20;;;15.90;99.80;;;;;;5028479;28;20194;-69
2023/04/12 11:07:43;;;;;;;1.65;1.55;;;16.20;99.90;;;;;;5028701;28;20190;-68
2023/04/12 11:10:14;;;;;;;1.40;1.30;;;16.30;98.90;;;;;;5026854;28;20217;-69
2023/04/12 11:12:40;;;;;;;1.50;1.40;;;16.90;98.40;;;;;;5028408;28;20289;-69
2023/04/12 11:15:10;;;;;;;1.48;1.30;;;16.80;98.90;;;;;;5029548;28;20186;-70
2023/04/12 11:17:36;;;;;;;1.67;1.40;;;17.00;97.40;;;;;;5027005;28;20182;-71
2023/04/12 11:20:03;;;;;;;1.80;1.23;;;17.10;97.40;;;;;;5024059;28;20210;-68
2023/04/12 11:22:31;;;;;;;2.38;1.20;;;16.90;97.70;;;;;;5026718;28;20806;-69
2023/04/12 11:24:59;;;;;;;3.13;1.20;;;16.40;97.20;;;;;;5028673;28;20193;-69
2023/04/12 11:27:26;;;;;;;1.30;1.00;;;16.40;97.70;;;;;;5027230;28;20198;-69
2023/04/12 11:29:54;;;;;;;2.05;1.25;;;16.30;97.70;;;;;;5029215;28;20194;-69
2023/04/12 11:32:22;;;;;;;2.15;1.40;;;16.40;98.30;;;;;;5028947;28;20224;-69
2023/04/12 11:34:48;;;;;;;1.55;1.40;;;16.10;97.80;;;;;;5029355;28;20656;-69
2023/04/12 11:37:14;;;;;;;1.93;1.53;;;16.30;98.10;;;;;;5029458;28;20197;-69
2023/04/12 11:39:43;;;;;;;1.67;1.57;;;16.10;97.70;;;;;;5026147;28;20816;-69
2023/04/12 11:42:21;;;;;;;1.65;1.40;;;16.00;98.20;;;;;;5028089;28;20956;-69
2023/04/12 11:44:47;;;;;;;2.10;1.15;;;16.30;97.90;;;;;;5029402;28;20190;-69
2023/04/12 11:47:20;;;;;;;1.13;1.03;;;16.30;96.90;;;;;;5026395;28;20209;-69
2023/04/12 11:49:49;;;;;;;1.35;1.17;;;16.30;96.80;;;;;;5029462;28;20210;-68
2023/04/12 11:52:15;;;;;;;1.80;1.27;;;16.30;96.80;;;;;;5027796;28;20325;-69
2023/04/12 11:54:46;;;;;;;1.35;1.25;;;17.00;97.20;;;;;;5027289;28;20189;-69
2023/04/12 11:57:13;;;;;;;1.70;1.20;;;16.90;96.00;;;;;;5025959;28;20235;-69
2023/04/12 11:59:41;;;;;;;2.28;1.27;;;17.20;95.90;;;;;;5025736;28;20187;-71
2023/04/12 12:02:08;;;;;;;2.15;1.30;;;17.30;96.10;;;;;;5026488;28;20206;-69
2023/04/12 12:04:35;;;;;;;1.73;1.20;;;17.40;95.20;;;;;;5029299;28;20552;-69
2023/04/12 12:07:01;;;;;;;1.43;0.87;;;16.90;94.70;;;;;;5025928;28;20280;-68
2023/04/12 12:09:28;;;;;;;2.10;1.42;;;17.20;96.00;;;;;;5027635;28;20853;-69
2023/04/12 12:11:55;;;;;;;1.98;1.20;;;17.10;95.70;;;;;;5025008;28;20209;-70
2023/04/12 12:14:22;;;;;;;1.60;1.20;;;17.20;95.00;;;;;;5028686;28;20224;-70
2023/04/12 12:16:53;;;;;;;1.33;0.90;;;17.10;95.10;;;;;;5028370;28;20201;-69
2023/04/12 12:19:30;;;;;;;1.42;1.10;;;17.10;95.10;;;;;;5028313;28;20273;-68
2023/04/12 12:22:14;;;;;;;1.75;1.50;;;17.00;94.80;;;;;;5026901;28;20622;-70
2023/04/12 12:24:57;;;;;;;3.17;1.00;;;17.10;95.40;;;;;;5029237;28;20214;-69
2023/04/12 12:27:24;;;;;;;1.00;0.90;;;17.10;94.40;;;;;;5024212;28;20301;-70
2023/04/12 12:29:52;;;;;;;1.92;1.13;;;17.40;94.00;;;;;;5026676;28;20346;-69
2023/04/12 12:32:18;;;;;;;2.13;1.15;;;17.20;94.10;;;;;;5024512;28;20229;-69
2023/04/12 12:34:55;;;;;;;1.98;0.90;;;17.30;94.20;;;;;;5028295;28;20560;-69
2023/04/12 12:37:28;;;;;;;1.60;1.00;;;17.30;94.10;;;;;;5027958;28;20198;-69
2023/04/12 12:40:16;;;;;;;1.30;1.00;;;17.30;94.30;;;;;;5027840;28;20209;-70
2023/04/12 12:42:49;;;;;;;1.52;0.90;;;17.30;93.90;;;;;;5026967;28;20209;-70
2023/04/12 12:45:16;;;;;;;1.30;1.00;;;17.40;94.00;;;;;;5028263;28;20214;-70
2023/04/12 12:47:47;;;;;;;1.15;0.90;;;17.60;94.00;;;;;;5028048;28;20174;-70
2023/04/12 12:50:14;;;;;;;2.35;1.05;;;18.10;93.50;;;;;;5025673;28;20536;-70
2023/04/12 12:52:40;;;;;;;2.35;1.48;;;18.30;92.90;;;;;;5027124;28;20232;-70
2023/04/12 12:55:06;;;;;;;1.93;1.10;;;18.50;93.00;;;;;;5030190;28;20245;-70